Terminal Aerodrome Forecast
Issued by NWS

Home | Current Version | Previous Version | Graphics & Text | Print | Product List | Glossary On
Versions: 1 2 3 4 5 6 7 8 9 10 11 12 13 14 15 16 17 18 19 20 21 22
000
FTUS43 KBIS 272102 AAB
TAFMOT
TAF AMD
KMOT 272102Z 2721/2818 08013G18KT P6SM VCTS SCT090CB SCT200
      TEMPO 2722/2723 VRB15G25KT 4SM -TSRA BKN050CB
     FM280400 09007KT 4SM -SHRA VCTS BKN025CB
     FM280800 10006KT 2SM SHRA BR OVC009
     FM281500 27008KT P6SM BKN015=

USA.gov is the U.S. government's official web portal to all federal, state and local government web resources and services.